createdAt,value
2022-09-17T00:01:25.258Z,14.57
2022-09-17T00:03:55.870Z,14.41
2022-09-17T00:06:26.441Z,14.20
2022-09-17T00:08:54.966Z,14.35
2022-09-17T00:11:25.313Z,14.27
2022-09-17T00:13:54.529Z,14.35
2022-09-17T00:16:26.524Z,14.29
2022-09-17T00:18:55.025Z,14.35
2022-09-17T00:21:23.995Z,14.30
2022-09-17T00:23:56.896Z,14.48
2022-09-17T00:26:25.295Z,14.43
2022-09-17T00:28:54.077Z,14.58
2022-09-17T00:31:23.061Z,14.39
2022-09-17T00:33:51.559Z,14.34
2022-09-17T00:36:20.688Z,14.07
2022-09-17T00:38:50.826Z,14.14
2022-09-17T00:41:20.804Z,14.31
2022-09-17T00:43:51.021Z,14.26
2022-09-17T00:46:30.164Z,14.44
2022-09-17T00:49:00.081Z,14.28
2022-09-17T00:51:30.489Z,14.26
2022-09-17T00:53:58.915Z,14.31
2022-09-17T00:56:30.195Z,14.37
2022-09-17T00:58:58.281Z,14.45
2022-09-17T01:01:26.507Z,14.30
2022-09-17T01:03:54.768Z,14.05
2022-09-17T01:06:27.012Z,14.31
2022-09-17T01:09:12.496Z,14.28
2022-09-17T01:11:53.687Z,14.29
2022-09-17T01:14:30.283Z,14.25
2022-09-17T01:17:05.788Z,14.28
2022-09-17T01:20:14.099Z,14.46
2022-09-17T01:22:54.896Z,14.33
2022-09-17T01:25:25.144Z,14.45
2022-09-17T01:28:25.621Z,14.42
2022-09-17T01:31:22.438Z,14.18
2022-09-17T01:33:56.264Z,14.33
2022-09-17T01:36:35.982Z,14.38
2022-09-17T01:39:07.775Z,14.13
2022-09-17T01:41:42.836Z,14.25
2022-09-17T01:44:14.175Z,14.19
2022-09-17T01:46:45.803Z,14.07
2022-09-17T01:49:16.211Z,14.20
2022-09-17T01:51:48.643Z,13.98
2022-09-17T01:54:22.379Z,14.14
2022-09-17T01:56:54.544Z,14.10
2022-09-17T01:59:24.855Z,14.28
2022-09-17T02:01:57.480Z,14.10
2022-09-17T02:04:28.803Z,13.95
2022-09-17T02:07:00.084Z,14.02
2022-09-17T02:09:31.561Z,13.82
2022-09-17T02:12:01.673Z,13.99
2022-09-17T02:14:31.714Z,14.15
2022-09-17T02:17:05.647Z,14.16
2022-09-17T02:19:37.443Z,14.13
2022-09-17T02:22:10.086Z,14.13
2022-09-17T02:24:42.406Z,14.28
2022-09-17T02:27:14.927Z,14.06
2022-09-17T02:29:44.745Z,13.91
2022-09-17T02:32:14.609Z,13.86
2022-09-17T02:34:43.037Z,13.98
2022-09-17T02:37:11.195Z,13.99
2022-09-17T02:39:39.349Z,13.99
2022-09-17T02:42:15.933Z,13.91
2022-09-17T02:44:51.077Z,14.02
2022-09-17T02:47:38.937Z,13.97
2022-09-17T02:50:17.046Z,14.04
2022-09-17T02:52:55.287Z,13.97
2022-09-17T02:55:30.119Z,14.12
2022-09-17T02:58:02.525Z,13.99
2022-09-17T03:00:30.913Z,13.95
2022-09-17T03:03:04.301Z,14.05
2022-09-17T03:05:32.492Z,14.19
2022-09-17T03:08:01.205Z,13.86
2022-09-17T03:10:30.827Z,13.82
2022-09-17T03:12:58.874Z,14.06
2022-09-17T03:15:27.114Z,14.12
2022-09-17T03:17:55.188Z,14.37
2022-09-17T03:20:24.842Z,13.96
2022-09-17T03:22:53.309Z,14.05
2022-09-17T03:25:21.438Z,14.14
2022-09-17T03:27:49.675Z,14.28
2022-09-17T03:30:17.940Z,14.16
2022-09-17T03:32:46.654Z,14.01
2022-09-17T03:35:14.844Z,14.23
2022-09-17T03:37:44.300Z,14.29
2022-09-17T03:40:12.520Z,13.92
2022-09-17T03:42:40.586Z,14.20
2022-09-17T03:45:09.657Z,14.20
2022-09-17T03:47:38.334Z,14.08
2022-09-17T03:50:09.790Z,14.07
2022-09-17T03:52:37.930Z,14.29
2022-09-17T03:55:08.691Z,13.97
2022-09-17T03:57:36.745Z,14.07
2022-09-17T04:00:05.766Z,14.19
2022-09-17T04:02:39.917Z,14.09
2022-09-17T04:05:09.928Z,14.15
2022-09-17T04:07:38.064Z,14.10
2022-09-17T04:10:08.527Z,13.98
2022-09-17T04:12:36.606Z,14.10
2022-09-17T04:15:05.549Z,14.08
2022-09-17T04:17:33.706Z,13.71
2022-09-17T04:20:01.696Z,13.74
2022-09-17T04:22:29.725Z,13.78
2022-09-17T04:24:57.881Z,13.76
2022-09-17T04:27:27.301Z,13.60
2022-09-17T04:29:55.417Z,13.62
2022-09-17T04:32:23.598Z,13.62
2022-09-17T04:34:51.735Z,13.64
2022-09-17T04:37:19.987Z,13.55
2022-09-17T04:39:48.039Z,13.47
2022-09-17T04:42:17.005Z,13.47
2022-09-17T04:44:46.389Z,13.51
2022-09-17T04:47:14.887Z,13.50
2022-09-17T04:49:42.873Z,13.70
2022-09-17T04:52:11.029Z,13.87
2022-09-17T04:54:39.086Z,13.56
2022-09-17T04:57:07.401Z,13.67
2022-09-17T04:59:35.440Z,13.57
2022-09-17T05:02:04.989Z,13.33
2022-09-17T05:04:33.188Z,13.41
2022-09-17T05:07:01.443Z,13.57
2022-09-17T05:09:29.583Z,13.70
2022-09-17T05:11:57.716Z,13.90
2022-09-17T05:14:25.786Z,13.88
2022-09-17T05:16:53.912Z,13.81
2022-09-17T05:19:23.403Z,13.78
2022-09-17T05:21:51.565Z,13.75
2022-09-17T05:24:19.673Z,13.63
2022-09-17T05:26:47.975Z,13.78
2022-09-17T05:29:16.140Z,13.82
2022-09-17T05:31:44.278Z,13.54
2022-09-17T05:34:12.895Z,13.73
2022-09-17T05:36:42.760Z,13.91
2022-09-17T05:39:10.894Z,13.87
2022-09-17T05:41:39.003Z,13.79
2022-09-17T05:44:07.093Z,13.71
2022-09-17T05:46:35.273Z,13.94
2022-09-17T05:49:04.346Z,13.97
2022-09-17T05:51:32.840Z,14.05
2022-09-17T05:54:02.326Z,13.97
2022-09-17T05:56:30.391Z,13.88
2022-09-17T05:58:58.779Z,13.91
2022-09-17T06:01:27.385Z,13.93
2022-09-17T06:03:55.667Z,13.80
2022-09-17T06:06:23.671Z,13.94
2022-09-17T06:08:51.741Z,13.97
2022-09-17T06:11:21.244Z,13.99
2022-09-17T06:13:53.278Z,13.99
2022-09-17T06:16:22.507Z,14.02
2022-09-17T06:18:53.077Z,14.07
2022-09-17T06:21:22.962Z,14.11
2022-09-17T06:23:51.478Z,14.25
2022-09-17T06:26:21.166Z,14.24
2022-09-17T06:28:49.295Z,14.19
2022-09-17T06:31:17.643Z,14.22
2022-09-17T06:33:45.871Z,14.24
2022-09-17T06:36:14.862Z,14.25
2022-09-17T06:38:43.373Z,14.22
2022-09-17T06:41:12.497Z,14.23
2022-09-17T06:43:41.951Z,13.94
2022-09-17T06:46:11.129Z,13.72
2022-09-17T06:48:39.940Z,14.03
2022-09-17T06:51:10.039Z,14.20
2022-09-17T06:53:39.046Z,13.83
2022-09-17T06:56:08.387Z,13.78
2022-09-17T06:58:38.193Z,14.01
2022-09-17T07:01:07.769Z,13.80
2022-09-17T07:03:36.017Z,14.10
2022-09-17T07:06:04.751Z,14.26
2022-09-17T07:08:34.510Z,14.27
2022-09-17T07:11:02.722Z,14.08
2022-09-17T07:13:33.757Z,14.27
2022-09-17T07:16:03.286Z,14.21
2022-09-17T07:18:32.770Z,14.27
2022-09-17T07:21:02.445Z,14.42
2022-09-17T07:23:31.715Z,14.42
2022-09-17T07:26:01.214Z,14.28
2022-09-17T07:28:30.204Z,14.34
2022-09-17T07:30:58.744Z,14.30
2022-09-17T07:33:28.168Z,14.20
2022-09-17T07:35:59.465Z,14.30
2022-09-17T07:38:30.115Z,14.28
2022-09-17T07:40:59.558Z,14.16
2022-09-17T07:43:28.237Z,14.21
2022-09-17T07:45:58.286Z,14.01
2022-09-17T07:48:26.928Z,14.13
2022-09-17T07:50:55.010Z,14.03
2022-09-17T07:53:24.420Z,14.12
2022-09-17T07:55:53.714Z,14.12
2022-09-17T07:58:21.986Z,13.89
2022-09-17T08:00:50.371Z,14.07
2022-09-17T08:03:18.614Z,14.19
2022-09-17T08:05:48.174Z,13.93
2022-09-17T08:08:20.475Z,14.27
2022-09-17T08:10:50.858Z,14.16
2022-09-17T08:13:19.034Z,14.14
2022-09-17T08:15:47.213Z,14.25
2022-09-17T08:18:17.242Z,14.28
2022-09-17T08:20:45.388Z,14.24
2022-09-17T08:23:13.462Z,14.10
2022-09-17T08:25:41.509Z,14.05
2022-09-17T08:28:10.963Z,14.31
2022-09-17T08:30:39.047Z,14.29
2022-09-17T08:33:07.078Z,14.37
2022-09-17T08:35:35.172Z,14.13
2022-09-17T08:38:03.447Z,14.08
2022-09-17T08:40:31.788Z,14.14
2022-09-17T08:43:02.533Z,14.25
2022-09-17T08:45:32.086Z,14.37
2022-09-17T08:48:05.124Z,14.29
2022-09-17T08:50:35.602Z,14.22
2022-09-17T08:53:28.453Z,14.27
2022-09-17T08:56:01.418Z,14.28
2022-09-17T08:58:43.374Z,14.39
2022-09-17T09:01:34.810Z,14.28
2022-09-17T09:04:18.567Z,14.28
2022-09-17T09:06:50.172Z,14.02
2022-09-17T09:09:21.976Z,14.02
2022-09-17T09:11:55.709Z,14.01
2022-09-17T09:14:29.370Z,14.05
2022-09-17T09:16:59.599Z,14.12
2022-09-17T09:19:31.700Z,14.26
2022-09-17T09:22:04.595Z,14.19
2022-09-17T09:24:42.043Z,14.16
2022-09-17T09:27:21.159Z,14.05
2022-09-17T09:30:02.151Z,14.14
2022-09-17T09:32:42.804Z,14.35
2022-09-17T09:35:18.522Z,14.28
2022-09-17T09:37:53.802Z,14.13
2022-09-17T09:40:29.953Z,14.17
2022-09-17T09:43:02.425Z,13.95
2022-09-17T09:45:40.443Z,14.03
2022-09-17T09:48:19.989Z,14.35
2022-09-17T09:51:06.107Z,14.12
2022-09-17T09:53:44.698Z,14.17
2022-09-17T09:56:29.318Z,14.24
2022-09-17T09:58:58.957Z,14.15
2022-09-17T10:01:29.387Z,14.08
2022-09-17T10:03:59.617Z,14.06
2022-09-17T10:06:30.863Z,14.21
2022-09-17T10:09:13.453Z,14.43
2022-09-17T10:11:43.185Z,14.04
2022-09-17T10:14:20.673Z,14.07
2022-09-17T10:16:51.003Z,14.08
2022-09-17T10:19:25.419Z,14.14
2022-09-17T10:21:54.026Z,14.58
2022-09-17T10:24:26.347Z,14.49
2022-09-17T10:27:02.333Z,14.43
2022-09-17T10:29:31.575Z,14.12
2022-09-17T10:32:00.333Z,14.01
2022-09-17T10:34:32.905Z,14.15
2022-09-17T10:37:01.089Z,14.30
2022-09-17T10:39:36.428Z,14.17
2022-09-17T10:42:06.103Z,14.19
2022-09-17T10:44:36.788Z,14.21
2022-09-17T10:47:07.575Z,14.33
2022-09-17T10:49:40.972Z,14.11
2022-09-17T10:52:15.448Z,13.87
2022-09-17T10:55:10.418Z,14.04
2022-09-17T10:58:05.829Z,14.20
2022-09-17T11:00:43.843Z,14.13
2022-09-17T11:03:38.436Z,14.33
2022-09-17T11:06:45.844Z,14.17
2022-09-17T11:09:26.245Z,14.26
2022-09-17T11:12:05.559Z,14.42
2022-09-17T11:14:47.940Z,14.32
2022-09-17T11:17:30.163Z,14.69
2022-09-17T11:20:03.220Z,14.90
2022-09-17T11:22:40.497Z,14.49
2022-09-17T11:25:33.276Z,14.50
2022-09-17T11:28:08.783Z,14.76
2022-09-17T11:30:49.550Z,15.04
2022-09-17T11:33:32.174Z,14.84
2022-09-17T11:36:04.453Z,14.82
2022-09-17T11:38:41.205Z,14.44
2022-09-17T11:41:13.997Z,14.33
2022-09-17T11:43:46.486Z,14.35
2022-09-17T11:46:17.905Z,14.17
2022-09-17T11:48:48.573Z,14.36
2022-09-17T11:51:23.280Z,14.25
2022-09-17T11:53:55.027Z,14.19
2022-09-17T11:56:26.976Z,14.18
2022-09-17T11:58:58.779Z,14.31
2022-09-17T12:01:32.966Z,14.30
2022-09-17T12:04:02.899Z,13.92
2022-09-17T12:06:37.354Z,14.16
2022-09-17T12:09:13.693Z,14.16
2022-09-17T12:11:45.139Z,13.93
2022-09-17T12:14:18.642Z,13.81
2022-09-17T12:16:47.576Z,14.21
2022-09-17T12:19:19.246Z,13.94
2022-09-17T12:21:49.692Z,13.84
2022-09-17T12:24:23.612Z,13.89
2022-09-17T12:27:01.047Z,13.87
2022-09-17T12:29:47.951Z,14.00
2022-09-17T12:32:33.981Z,14.10
2022-09-17T12:35:07.386Z,13.85
2022-09-17T12:37:41.085Z,13.78
2022-09-17T12:40:17.316Z,13.83
2022-09-17T12:43:02.569Z,13.90
2022-09-17T12:45:50.462Z,13.78
2022-09-17T12:48:35.125Z,13.73
2022-09-17T12:51:12.240Z,13.92
2022-09-17T12:53:44.636Z,13.86
2022-09-17T12:56:25.180Z,13.77
2022-09-17T12:59:05.029Z,13.87
2022-09-17T13:01:36.661Z,13.91
2022-09-17T13:04:16.044Z,13.86
2022-09-17T13:07:05.918Z,13.89
2022-09-17T13:09:48.158Z,13.92
2022-09-17T13:12:26.609Z,13.90
2022-09-17T13:18:13.306Z,13.82
2022-09-17T13:20:54.921Z,13.75
2022-09-17T13:23:32.144Z,13.80
2022-09-17T13:26:04.748Z,13.83
2022-09-17T13:28:47.441Z,13.90
2022-09-17T13:31:21.741Z,13.64
2022-09-17T13:33:59.854Z,13.95
2022-09-17T13:36:42.774Z,14.02
2022-09-17T13:39:13.439Z,13.91
2022-09-17T13:41:42.619Z,13.68
2022-09-17T13:44:12.717Z,13.80
2022-09-17T13:46:41.530Z,13.97
2022-09-17T13:49:15.504Z,13.86
2022-09-17T13:51:54.563Z,13.91
2022-09-17T13:54:24.427Z,13.91
2022-09-17T13:57:09.457Z,13.85
2022-09-17T13:59:39.593Z,13.82
2022-09-17T14:02:36.471Z,13.81
2022-09-17T14:05:37.708Z,13.83
2022-09-17T14:08:27.842Z,13.79
2022-09-17T14:10:57.306Z,13.77
2022-09-17T14:13:40.330Z,13.83
2022-09-17T14:16:46.120Z,13.67
2022-09-17T14:19:26.863Z,13.83
2022-09-17T14:22:01.747Z,14.17
2022-09-17T14:24:36.712Z,13.98
2022-09-17T14:27:14.695Z,13.83
2022-09-17T14:30:03.507Z,13.71
2022-09-17T14:32:39.447Z,13.82
2022-09-17T14:35:19.952Z,13.72
2022-09-17T14:37:55.924Z,13.92
2022-09-17T14:40:25.402Z,13.78
2022-09-17T14:42:56.883Z,13.67
2022-09-17T14:45:29.948Z,13.65
2022-09-17T14:48:30.815Z,13.75
2022-09-17T14:51:25.532Z,13.62
2022-09-17T14:54:15.909Z,13.80
2022-09-17T14:56:49.589Z,13.87
2022-09-17T14:59:24.039Z,14.01
2022-09-17T15:01:52.458Z,13.93
2022-09-17T15:04:26.754Z,13.65
2022-09-17T15:07:07.530Z,13.77
2022-09-17T15:09:35.859Z,13.86
2022-09-17T15:12:05.268Z,13.72
2022-09-17T15:14:35.539Z,13.75
2022-09-17T15:17:05.323Z,13.77
2022-09-17T15:19:36.348Z,13.90
2022-09-17T15:22:06.802Z,14.01
2022-09-17T15:24:40.149Z,13.91
2022-09-17T15:27:15.177Z,14.04
2022-09-17T15:29:46.539Z,13.77
2022-09-17T15:32:15.313Z,14.01
2022-09-17T15:34:44.834Z,13.92
2022-09-17T15:37:20.431Z,14.06
2022-09-17T15:39:51.495Z,14.07
2022-09-17T15:42:22.155Z,14.10
2022-09-17T15:44:50.264Z,14.13
2022-09-17T15:47:37.947Z,13.88
2022-09-17T15:50:15.261Z,13.85
2022-09-17T15:52:43.653Z,13.81
2022-09-17T15:55:35.051Z,13.78
2022-09-17T15:58:05.756Z,13.91
2022-09-17T16:00:34.011Z,13.99
2022-09-17T16:03:51.278Z,13.76
2022-09-17T16:06:39.843Z,13.70
2022-09-17T16:09:39.100Z,13.94
2022-09-17T16:12:07.435Z,14.00
2022-09-17T16:14:35.512Z,13.83
2022-09-17T16:17:33.187Z,13.74
2022-09-17T16:20:06.073Z,13.53
2022-09-17T16:22:35.989Z,13.51
2022-09-17T16:25:04.380Z,13.52
2022-09-17T16:27:35.082Z,13.45
2022-09-17T16:30:05.782Z,13.50
2022-09-17T16:32:33.902Z,13.70
2022-09-17T16:35:02.351Z,13.37
2022-09-17T16:37:30.438Z,13.26
2022-09-17T16:40:01.032Z,12.86
2022-09-17T16:42:31.752Z,13.02
2022-09-17T16:45:01.282Z,13.00
2022-09-17T16:47:31.507Z,12.79
2022-09-17T16:49:59.601Z,12.85
2022-09-17T16:52:27.703Z,12.78
2022-09-17T16:54:55.814Z,12.76
2022-09-17T16:57:25.332Z,12.60
2022-09-17T16:59:53.738Z,12.44
2022-09-17T17:02:22.091Z,12.68
2022-09-17T17:04:50.423Z,12.53
2022-09-17T17:07:18.795Z,12.34
2022-09-17T17:09:46.871Z,12.34
2022-09-17T17:12:15.129Z,12.39
2022-09-17T17:14:49.981Z,12.58
2022-09-17T17:17:18.870Z,12.39
2022-09-17T17:19:47.682Z,12.20
2022-09-17T17:22:17.032Z,12.38
2022-09-17T17:24:45.280Z,12.31
2022-09-17T17:27:14.589Z,12.32
2022-09-17T17:29:44.157Z,12.25
2022-09-17T17:32:12.359Z,12.12
2022-09-17T17:34:40.558Z,12.05
2022-09-17T17:37:08.773Z,12.06
2022-09-17T17:39:37.016Z,12.18
2022-09-17T17:42:05.711Z,12.01
2022-09-17T17:44:33.894Z,12.11
2022-09-17T17:47:03.426Z,11.88
2022-09-17T17:49:31.652Z,11.94
2022-09-17T17:52:00.148Z,11.90
2022-09-17T17:54:29.114Z,12.04
2022-09-17T17:56:57.626Z,11.97
2022-09-17T17:59:26.027Z,11.99
2022-09-17T18:01:54.289Z,11.82
2022-09-17T18:04:23.996Z,12.11
2022-09-17T18:06:52.399Z,11.98
2022-09-17T18:09:20.469Z,12.09
2022-09-17T18:11:48.708Z,11.89
2022-09-17T18:14:16.929Z,12.15
2022-09-17T18:16:45.053Z,11.95
2022-09-17T18:19:13.508Z,11.89
2022-09-17T18:21:43.168Z,11.97
2022-09-17T18:24:11.796Z,12.06
2022-09-17T18:26:40.136Z,11.91
2022-09-17T18:29:08.509Z,11.87
2022-09-17T18:31:38.126Z,11.89
2022-09-17T18:34:08.688Z,11.86
2022-09-17T18:36:38.146Z,11.85
2022-09-17T18:41:57.714Z,12.03
2022-09-17T18:44:26.100Z,11.80
2022-09-17T18:46:54.400Z,11.89
2022-09-17T18:49:22.798Z,11.95
2022-09-17T18:51:51.145Z,11.91
2022-09-17T18:54:21.124Z,11.93
2022-09-17T18:56:49.495Z,11.92
2022-09-17T18:59:17.563Z,11.78
2022-09-17T19:01:45.686Z,12.02
2022-09-17T19:04:14.160Z,12.05
2022-09-17T19:06:42.483Z,11.99
2022-09-17T19:09:11.778Z,12.20
2022-09-17T19:11:41.440Z,12.22
2022-09-17T19:14:11.182Z,12.18
2022-09-17T19:16:39.559Z,12.20
2022-09-17T19:19:07.762Z,12.21
2022-09-17T19:21:35.849Z,12.13
2022-09-17T19:24:04.516Z,12.09
2022-09-17T19:26:32.667Z,12.30
2022-09-17T19:29:02.121Z,12.13
2022-09-17T19:31:30.666Z,12.27
2022-09-17T19:34:01.045Z,12.26
2022-09-17T19:36:29.323Z,12.43
2022-09-17T19:39:00.554Z,12.23
2022-09-17T19:41:29.242Z,12.27
2022-09-17T19:43:58.025Z,12.41
2022-09-17T19:46:27.978Z,12.36
2022-09-17T19:48:57.389Z,12.28
2022-09-17T19:51:28.428Z,12.29
2022-09-17T19:53:57.230Z,12.24
2022-09-17T19:56:27.300Z,12.16
2022-09-17T19:58:56.804Z,12.32
2022-09-17T20:01:25.053Z,12.13
2022-09-17T20:03:54.618Z,12.14
2022-09-17T20:06:24.139Z,12.12
2022-09-17T20:08:53.705Z,12.27
2022-09-17T20:11:23.619Z,12.13
2022-09-17T20:13:52.228Z,12.26
2022-09-17T20:16:22.391Z,12.18
2022-09-17T20:18:51.347Z,12.02
2022-09-17T20:21:22.816Z,11.89
2022-09-17T20:23:51.591Z,12.02
2022-09-17T20:26:20.064Z,11.86
2022-09-17T20:28:49.392Z,11.92
2022-09-17T20:31:19.918Z,11.87
2022-09-17T20:33:48.692Z,11.95
2022-09-17T20:36:18.794Z,11.96
2022-09-17T20:41:38.958Z,11.96
2022-09-17T20:44:08.417Z,11.95
2022-09-17T20:46:36.541Z,11.91
2022-09-17T20:49:05.498Z,11.84
2022-09-17T20:51:34.135Z,11.80
2022-09-17T20:54:04.224Z,11.84
2022-09-17T20:56:33.615Z,11.78
2022-09-17T20:59:08.813Z,11.75
2022-09-17T21:01:38.023Z,11.87
2022-09-17T21:04:08.289Z,11.83
2022-09-17T21:06:37.586Z,11.67
2022-09-17T21:09:07.793Z,11.80
2022-09-17T21:11:36.357Z,11.65
2022-09-17T21:14:04.632Z,11.72
2022-09-17T21:16:33.069Z,11.50
2022-09-17T21:19:02.535Z,11.58
2022-09-17T21:21:34.418Z,11.50
2022-09-17T21:24:03.685Z,11.63
2022-09-17T21:26:34.976Z,11.57
2022-09-17T21:29:03.441Z,11.51
2022-09-17T21:31:33.779Z,11.58
2022-09-17T21:34:03.059Z,11.59
2022-09-17T21:36:32.536Z,11.57
2022-09-17T21:39:01.949Z,11.53
2022-09-17T21:41:30.724Z,11.62
2022-09-17T21:44:00.397Z,11.41
2022-09-17T21:46:30.247Z,11.40
2022-09-17T21:49:00.211Z,11.34
2022-09-17T21:51:30.780Z,11.59
2022-09-17T21:54:00.291Z,11.42
2022-09-17T21:56:29.500Z,11.33
2022-09-17T21:58:59.230Z,11.43
2022-09-17T22:01:32.248Z,11.44
2022-09-17T22:04:02.177Z,11.48
2022-09-17T22:06:31.629Z,11.49
2022-09-17T22:09:01.346Z,11.62
2022-09-17T22:11:31.029Z,11.41
2022-09-17T22:14:04.950Z,11.35
2022-09-17T22:16:36.104Z,11.46
2022-09-17T22:19:05.575Z,11.35
2022-09-17T22:21:35.162Z,11.14
2022-09-17T22:24:04.619Z,11.24
2022-09-17T22:26:34.484Z,11.16
2022-09-17T22:29:03.566Z,11.03
2022-09-17T22:31:31.824Z,11.23
2022-09-17T22:34:01.865Z,11.20
2022-09-17T22:36:30.108Z,11.17
2022-09-17T22:38:59.490Z,11.18
2022-09-17T22:41:29.450Z,11.14
2022-09-17T22:43:58.963Z,11.25
2022-09-17T22:46:28.754Z,11.26
2022-09-17T22:48:57.245Z,11.21
2022-09-17T22:51:28.457Z,11.19
2022-09-17T22:53:56.946Z,11.18
2022-09-17T22:56:25.684Z,11.26
2022-09-17T22:58:53.887Z,11.17
2022-09-17T23:01:23.719Z,11.16
2022-09-17T23:03:53.380Z,11.07
2022-09-17T23:06:23.882Z,11.10
2022-09-17T23:08:53.695Z,11.18
2022-09-17T23:11:23.758Z,11.29
2022-09-17T23:13:52.480Z,11.15
2022-09-17T23:16:21.191Z,11.10
2022-09-17T23:18:49.355Z,11.08
2022-09-17T23:21:19.557Z,11.16
2022-09-17T23:23:49.728Z,11.33
2022-09-17T23:26:20.934Z,11.04
2022-09-17T23:28:49.666Z,11.08
2022-09-17T23:31:20.393Z,11.08
2022-09-17T23:33:48.991Z,11.15
2022-09-17T23:36:20.365Z,11.05
2022-09-17T23:38:49.518Z,11.11
2022-09-17T23:41:21.015Z,11.02
2022-09-17T23:43:51.512Z,11.03
2022-09-17T23:46:21.267Z,10.93
2022-09-17T23:48:49.909Z,10.89
2022-09-17T23:51:18.390Z,10.91
2022-09-17T23:53:48.144Z,10.91
2022-09-17T23:56:18.804Z,10.85
2022-09-17T23:58:48.957Z,10.89
